KPLN/PLN METAR and TAF weather

Enter ICAO airport designator
Station Type Date Time Source
KPLN METAR 2020/01/22 20:54 UTC NOAA

KPLN 222054Z AUTO 22008KT 10SM OVC020 02/M02 A3002 RMK AO2 SLP176 T00221022 56007


Station Type Date Time Source
KPLN Decoded METAR 2020/01/22 20:54 UTC NOAA

PELLSTON REGIONAL AIRPORT, MI, United States (KPLN) 45-34N 084-48W 217M
Jan 22, 2020 - 03:54 PM EST / 2020.01.22 2054 UTC
Wind: from the SW (220 degrees) at 9 MPH (8 KT):0
Visibility: 10 mile(s):0
Sky conditions: overcast
Temperature: 36.0 F (2.2 C)
Dew Point: 28.0 F (-2.2 C)
Relative Humidity: 72%
Pressure (altimeter): 30.02 in. Hg (1016 hPa)
Pressure tendency: 0.02 inches (0.7 hPa) lower than three hours ago
ob: KPLN 222054Z AUTO 22008KT 10SM OVC020 02/M02 A3002 RMK AO2 SLP176 T00221022 56007
cycle: 21

Station Type Date Time Source
KPLN TAF 2020/01/22 18:30 UTC NOAA

TAF KPLN 221729Z 2218/2318 22011G17KT P6SM OVC019
FM222000 23008KT P6SM OVC025
FM230300 22005KT P6SM VCSH OVC060
FM231300 20007KT 5SM -SN OVC016
FM231500 20006KT 4SM -SN OVC008

Example: see airport list